Menu Close Menu
Station Historical Data
Daily Summary for June 20, 2017 Units:  Metric    English   Both
« Previous Day
Next Day »
Daily Weekly Monthly Yearly Custom
  High: Low: Average:
Temperature: 26.4 °C 20.9 °C 22.7 °C
Dew Point: 22.8 °C 19.8 °C 21 °C
Humidity: 94% 74% 91%
Wind Speed: 0km/h 0km/h 0km/h
Wind Gust: 3.2km/h - -
Wind- -
Pressure: 1018.8 hPa 1016.5 hPa -
Precipitation: 0.51 mm    
Historical Graphs
 
 
Tabular Data for June 20, 2017
Time Temperature Dew Point Pressure Wind Wind Speed Wind Gust Humidity Rainfall Rate (Hourly) solar Conditions
00:00 22.5 °C 21.3 °C 1017.5 hPa Calm     93% 0 mm WeatherDisplay:10.37 W/m2 RA
00:10 22.4 °C 21.3 °C 1017.5 hPa Calm     93% 0 mm WeatherDisplay:10.37 W/m2 CLR
00:20 22.4 °C 21.2 °C 1017.5 hPa Calm     93% 0 mm WeatherDisplay:10.37 W/m2 CLR
00:30 22.4 °C 21.2 °C 1017.5 hPa Calm     93% 0 mm WeatherDisplay:10.37 W/m2 CLR
00:40 22.4 °C 21.2 °C 1017.5 hPa Calm     93% 0 mm WeatherDisplay:10.37 W/m2 CLR
00:50 22.4 °C 21.2 °C 1017.5 hPa Calm     93% 0 mm WeatherDisplay:10.37 W/m2 CLR
01:00 22.3 °C 21.2 °C 1017.5 hPa Calm     93% 0 mm WeatherDisplay:10.37 W/m2 CLR
01:10 22.4 °C 21.2 °C 1017.5 hPa Calm     93% 0 mm WeatherDisplay:10.37 W/m2 CLR
01:20 22.4 °C 21.4 °C 1017.5 hPa Calm     94% 0 mm WeatherDisplay:10.37 W/m2 CLR
01:30 22.5 °C 21.5 °C 1017.5 hPa Calm     94% 0 mm WeatherDisplay:10.37 W/m2 CLR
01:40 22.5 °C 21.5 °C 1017.5 hPa Calm     94% 0 mm WeatherDisplay:10.37 W/m2 CLR
01:50 22.6 °C 21.6 °C 1017.5 hPa Calm     94% 0 mm WeatherDisplay:10.37 W/m2 CLR
02:00 22.6 °C 21.6 °C 1017.2 hPa Calm     94% 0 mm WeatherDisplay:10.37 W/m2 CLR
02:10 22.6 °C 21.6 °C 1017.2 hPa Calm     94% 0 mm WeatherDisplay:10.37 W/m2 CLR
02:20 22.6 °C 21.6 °C 1017.2 hPa Calm     94% 0 mm WeatherDisplay:10.37 W/m2 CLR
02:30 22.1 °C 20.9 °C 1016.8 hPa Calm     93% 0 mm WeatherDisplay:10.37 W/m2 CLR
02:40 22.1 °C 20.9 °C 1016.8 hPa Calm     93% 0 mm WeatherDisplay:10.37 W/m2 CLR
02:50 22.1 °C 20.9 °C 1016.8 hPa Calm     93% 0 mm WeatherDisplay:10.37 W/m2 CLR
03:00 22.1 °C 20.9 °C 1017.2 hPa Calm     93% 0 mm WeatherDisplay:10.37 W/m2 CLR
03:10 22.1 °C 20.9 °C 1016.8 hPa Calm     93% 0 mm WeatherDisplay:10.37 W/m2 CLR
03:20 22.1 °C 20.9 °C 1017.2 hPa Calm     93% 0 mm WeatherDisplay:10.37 W/m2 CLR
03:30 22.1 °C 20.9 °C 1016.8 hPa Calm     93% 0 mm WeatherDisplay:10.37 W/m2 CLR
03:40 22.1 °C 20.9 °C 1016.8 hPa Calm     93% 0 mm WeatherDisplay:10.37 W/m2 CLR
04:00 22.1 °C 20.9 °C 1016.8 hPa Calm     93% 0 mm WeatherDisplay:10.37 W/m2 CLR
04:10 22.1 °C 20.9 °C 1016.5 hPa Calm     93% 0 mm WeatherDisplay:10.37 W/m2 CLR
04:20 22.1 °C 20.9 °C 1016.5 hPa Calm     93% 0 mm WeatherDisplay:10.37 W/m2 CLR
04:30 22.1 °C 20.9 °C 1016.5 hPa Calm     93% 0 mm WeatherDisplay:10.37 W/m2 CLR
04:40 22.1 °C 20.9 °C 1016.5 hPa Calm     93% 0 mm WeatherDisplay:10.37 W/m2 CLR
04:50 22.1 °C 20.9 °C 1016.5 hPa Calm     93% 0 mm WeatherDisplay:10.37 W/m2 CLR
05:00 22.1 °C 20.9 °C 1016.5 hPa Calm     93% 0 mm WeatherDisplay:10.37 W/m2 CLR
05:10 22.1 °C 20.9 °C 1016.5 hPa Calm     93% 0 mm WeatherDisplay:10.37 W/m2 CLR
05:20 22.1 °C 20.9 °C 1016.5 hPa Calm     93% 0 mm WeatherDisplay:10.37 W/m2 CLR
05:30 22.1 °C 20.9 °C 1016.5 hPa Calm     93% 0 mm WeatherDisplay:10.37 W/m2 CLR
05:40 22.1 °C 20.9 °C 1016.5 hPa Calm     93% 0 mm WeatherDisplay:10.37 W/m2 CLR
05:50 22.1 °C 20.9 °C 1016.5 hPa Calm     93% 0 mm WeatherDisplay:10.37 W/m2 CLR
06:00 22.1 °C 20.9 °C 1016.5 hPa Calm     93% 0 mm WeatherDisplay:10.37 W/m2 CLR
06:10 22.1 °C 20.9 °C 1016.5 hPa Calm     93% 0 mm WeatherDisplay:10.37 W/m2 CLR
06:20 22.1 °C 20.9 °C 1016.8 hPa Calm     93% 0 mm WeatherDisplay:10.37 W/m2 CLR
06:30 22.1 °C 20.9 °C 1016.8 hPa Calm     93% 0 mm WeatherDisplay:10.37 W/m2 CLR
06:40 22.1 °C 20.9 °C 1016.8 hPa Calm     93% 0 mm WeatherDisplay:10.37 W/m2 CLR
06:50 22.1 °C 20.9 °C 1016.8 hPa Calm     93% 0 mm WeatherDisplay:10.37 W/m2 CLR
07:00 22.1 °C 20.9 °C 1016.8 hPa Calm     93% 0 mm WeatherDisplay:10.37 W/m2 CLR
07:20 22.1 °C 20.9 °C 1017.2 hPa Calm     93% 0 mm WeatherDisplay:10.37 W/m2 CLR
07:30 22.1 °C 20.9 °C 1017.5 hPa Calm     93% 0 mm WeatherDisplay:10.37 W/m2 CLR
07:40 22.1 °C 20.9 °C 1017.5 hPa Calm     93% 0 mm WeatherDisplay:10.37 W/m2 CLR
07:50 22.1 °C 20.9 °C 1017.5 hPa Calm     93% 0 mm WeatherDisplay:10.37 W/m2 CLR
08:00 22.1 °C 20.9 °C 1017.5 hPa Calm     93% 0 mm WeatherDisplay:10.37 W/m2 CLR
08:10 22.1 °C 20.9 °C 1017.5 hPa Calm     93% 0 mm WeatherDisplay:10.37 W/m2 CLR
08:20 22.1 °C 20.9 °C 1017.8 hPa Calm     93% 0 mm WeatherDisplay:10.37 W/m2 CLR
08:30 22.1 °C 20.9 °C 1017.8 hPa Calm     93% 0 mm WeatherDisplay:10.37 W/m2 CLR
08:40 22.1 °C 20.9 °C 1017.8 hPa Calm     93% 0 mm WeatherDisplay:10.37 W/m2 CLR
08:50 22.1 °C 20.9 °C 1017.8 hPa Calm     93% 0 mm WeatherDisplay:10.37 W/m2 CLR
09:00 22.1 °C 20.9 °C 1017.8 hPa Calm     93% 0 mm WeatherDisplay:10.37 W/m2 CLR
09:10 22.7 °C 21.7 °C 1017.8 hPa Calm     94% 0 mm WeatherDisplay:10.37 W/m2 CLR
09:20 22.7 °C 21.7 °C 1017.8 hPa Calm     94% 0 mm WeatherDisplay:10.37 W/m2 CLR
09:30 22.7 °C 21.7 °C 1017.8 hPa Calm     94% 0 mm WeatherDisplay:10.37 W/m2 CLR
09:40 22.7 °C 21.7 °C 1017.8 hPa Calm     94% 0 mm WeatherDisplay:10.37 W/m2 CLR
09:50 22.7 °C 21.7 °C 1017.8 hPa Calm   1.6 km/h 94% 0 mm WeatherDisplay:10.37 W/m2 CLR
10:00 22.8 °C 21.8 °C 1017.8 hPa Calm     94% 0 mm WeatherDisplay:10.37 W/m2 CLR
10:10 22.8 °C 21.6 °C 1017.8 hPa Calm   1.6 km/h 93% 0 mm WeatherDisplay:10.37 W/m2 CLR
10:30 23.1 °C 21.6 °C 1017.8 hPa Calm     91% 0 mm WeatherDisplay:10.37 W/m2 CLR
10:40 23.5 °C 21.9 °C 1017.8 hPa Calm     91% 0 mm WeatherDisplay:10.37 W/m2 CLR
10:50 23.6 °C 21.9 °C 1017.8 hPa Calm   1.6 km/h 90% 0 mm WeatherDisplay:10.37 W/m2 CLR
11:00 23.8 °C 21.9 °C 1017.8 hPa Calm     89% 0 mm WeatherDisplay:10.37 W/m2 CLR
11:20 24.3 °C 21.8 °C 1017.8 hPa Calm   1.6 km/h 86% 0 mm WeatherDisplay:10.37 W/m2 CLR
11:30 24.6 °C 21.7 °C 1017.8 hPa Calm   1.6 km/h 84% 0 mm WeatherDisplay:10.37 W/m2 CLR
11:40 24.8 °C 21.5 °C 1017.8 hPa Calm   1.6 km/h 82% 0 mm WeatherDisplay:10.37 W/m2 CLR
11:50 24.9 °C 21.8 °C 1017.8 hPa Calm   1.6 km/h 83% 0 mm WeatherDisplay:10.37 W/m2 CLR
12:00 25.2 °C 21.4 °C 1017.8 hPa Calm   1.6 km/h 80% 0 mm WeatherDisplay:10.37 W/m2 CLR
12:10 25.2 °C 22.3 °C 1017.5 hPa Calm   1.6 km/h 84% 0 mm WeatherDisplay:10.37 W/m2 CLR
12:20 25.3 °C 22 °C 1017.5 hPa Calm   1.6 km/h 82% 0 mm WeatherDisplay:10.37 W/m2 CLR
12:30 25.5 °C 22.4 °C 1017.5 hPa Calm     83% 0 mm WeatherDisplay:10.37 W/m2 CLR
12:40 25.7 °C 22.2 °C 1017.5 hPa Calm     81% 0 mm WeatherDisplay:10.37 W/m2 CLR
12:50 26.1 °C 22.8 °C 1017.5 hPa Calm   1.6 km/h 82% 0 mm WeatherDisplay:10.37 W/m2 CLR
13:00 26.3 °C 21.7 °C 1017.5 hPa Calm   3.2 km/h 76% 0 mm WeatherDisplay:10.37 W/m2 CLR
13:10 26.4 °C 21.8 °C 1017.2 hPa Calm   3.2 km/h 76% 0 mm WeatherDisplay:10.37 W/m2 CLR
13:20 26.4 °C 21.4 °C 1017.5 hPa Calm   1.6 km/h 74% 0 mm WeatherDisplay:10.37 W/m2 CLR
13:30 26.2 °C 21.7 °C 1017.2 hPa Calm   1.6 km/h 76% 0 mm WeatherDisplay:10.37 W/m2 CLR
13:40 26 °C 22.1 °C 1017.2 hPa Calm   1.6 km/h 79% 0 mm WeatherDisplay:10.37 W/m2 CLR
13:50 24.9 °C 21.4 °C 1017.2 hPa Calm   3.2 km/h 81% 0 mm WeatherDisplay:10.37 W/m2 CLR
14:00 24.5 °C 21.6 °C 1017.5 hPa Calm   3.2 km/h 84% 0 mm WeatherDisplay:10.37 W/m2 CLR
14:10 24.3 °C 21.7 °C 1017.2 hPa Calm   1.6 km/h 85% 0 mm WeatherDisplay:10.37 W/m2 CLR
14:20 24.3 °C 21.4 °C 1017.2 hPa Calm   1.6 km/h 84% 0 mm WeatherDisplay:10.37 W/m2 CLR
14:30 24.1 °C 21.2 °C 1017.5 hPa Calm     84% 0 mm WeatherDisplay:10.37 W/m2 CLR
14:40 23.9 °C 21 °C 1017.5 hPa Calm   3.2 km/h 84% 0 mm WeatherDisplay:10.37 W/m2 CLR
14:50 23.8 °C 20.8 °C 1017.2 hPa Calm   3.2 km/h 83% 0 mm WeatherDisplay:10.37 W/m2 CLR
15:00 24 °C 20.7 °C 1017.5 hPa Calm   1.6 km/h 82% 0 mm WeatherDisplay:10.37 W/m2 CLR
15:10 23.8 °C 20.5 °C 1017.5 hPa Calm   1.6 km/h 82% 0 mm WeatherDisplay:10.37 W/m2 CLR
15:20 23.7 °C 21 °C 1017.5 hPa Calm     85% 0 mm WeatherDisplay:10.37 W/m2 CLR
15:30 23.6 °C 20.9 °C 1017.2 hPa Calm   1.6 km/h 85% 0 mm WeatherDisplay:10.37 W/m2 CLR
15:40 23.4 °C 20.9 °C 1017.5 hPa Calm   1.6 km/h 86% 0 mm WeatherDisplay:10.37 W/m2 CLR
15:50 23.2 °C 20.8 °C 1017.5 hPa Calm   1.6 km/h 86% 0 mm WeatherDisplay:10.37 W/m2 CLR
16:00 23.1 °C 20.9 °C 1017.5 hPa Calm   1.6 km/h 88% 0 mm WeatherDisplay:10.37 W/m2 CLR
16:10 22.9 °C 21 °C 1017.5 hPa Calm     89% 0 mm WeatherDisplay:10.37 W/m2 CLR
16:30 22.7 °C 21 °C 1017.2 hPa Calm     90% 0 mm WeatherDisplay:10.37 W/m2 CLR
16:40 22.6 °C 20.9 °C 1017.2 hPa Calm   3.2 km/h 90% 0 mm WeatherDisplay:10.37 W/m2 CLR
16:50 22.6 °C 21.1 °C 1017.2 hPa Calm   3.2 km/h 91% 0.25 mm WeatherDisplay:10.37 W/m2 RA
17:00 22.6 °C 21 °C 1017.2 hPa Calm   1.6 km/h 91% 0 mm WeatherDisplay:10.37 W/m2 CLR
17:10 22.3 °C 20.6 °C 1017.2 hPa Calm   1.6 km/h 90% 0 mm WeatherDisplay:10.37 W/m2 CLR
17:20 22.2 °C 20.6 °C 1017.2 hPa Calm     91% 0 mm WeatherDisplay:10.37 W/m2 CLR
17:30 22.1 °C 20.6 °C 1017.2 hPa Calm     91% 0 mm WeatherDisplay:10.37 W/m2 CLR
17:40 22.1 °C 20.6 °C 1017.2 hPa Calm   1.6 km/h 91% 0 mm WeatherDisplay:10.37 W/m2 CLR
17:50 22.1 °C 20.5 °C 1016.8 hPa Calm   1.6 km/h 91% 0 mm WeatherDisplay:10.37 W/m2 CLR
18:00 21.9 °C 20.3 °C 1016.8 hPa Calm     91% 0 mm WeatherDisplay:10.37 W/m2 CLR
18:10 21.8 °C 20.2 °C 1017.2 hPa Calm     91% 0 mm WeatherDisplay:10.37 W/m2 CLR
18:20 21.8 °C 20.3 °C 1016.8 hPa Calm     91% 0 mm WeatherDisplay:10.37 W/m2 CLR
18:30 21.8 °C 20.4 °C 1016.8 hPa Calm     92% 0 mm WeatherDisplay:10.37 W/m2 CLR
18:40 21.8 °C 20.5 °C 1016.8 hPa Calm     92% 0 mm WeatherDisplay:10.37 W/m2 CLR
18:50 21.8 °C 20.4 °C 1016.8 hPa Calm     92% 0 mm WeatherDisplay:10.37 W/m2 CLR
19:00 21.8 °C 20.4 °C 1016.8 hPa Calm     92% 0 mm WeatherDisplay:10.37 W/m2 CLR
19:10 21.8 °C 20.4 °C 1016.8 hPa Calm     92% 0 mm WeatherDisplay:10.37 W/m2 CLR
19:20 21.8 °C 20.4 °C 1016.8 hPa Calm     92% 0 mm WeatherDisplay:10.37 W/m2 CLR
19:30 21.8 °C 20.4 °C 1017.2 hPa Calm   1.6 km/h 92% 0 mm WeatherDisplay:10.37 W/m2 CLR
19:40 21.8 °C 20.5 °C 1017.2 hPa Calm     92% 0 mm WeatherDisplay:10.37 W/m2 CLR
19:50 21.9 °C 20.6 °C 1017.5 hPa Calm     92% 0 mm WeatherDisplay:10.37 W/m2 CLR
20:00 21.9 °C 20.6 °C 1017.5 hPa Calm     92% 0 mm WeatherDisplay:10.37 W/m2 CLR
20:10 21.9 °C 20.6 °C 1017.5 hPa Calm   1.6 km/h 92% 0 mm WeatherDisplay:10.37 W/m2 CLR
20:20 21.9 °C 20.8 °C 1017.5 hPa Calm   1.6 km/h 93% 0 mm WeatherDisplay:10.37 W/m2 CLR
20:30 21.9 °C 20.8 °C 1017.5 hPa Calm     93% 0 mm WeatherDisplay:10.37 W/m2 CLR
20:40 21.9 °C 20.7 °C 1017.5 hPa Calm     93% 0 mm WeatherDisplay:10.37 W/m2 CLR
20:50 21.9 °C 20.7 °C 1017.5 hPa Calm   1.6 km/h 93% 0 mm WeatherDisplay:10.37 W/m2 CLR
21:00 21.9 °C 20.7 °C 1017.5 hPa Calm   1.6 km/h 93% 0 mm WeatherDisplay:10.37 W/m2 CLR
21:10 21.9 °C 20.7 °C 1017.5 hPa Calm     93% 0 mm WeatherDisplay:10.37 W/m2 CLR
21:20 21.8 °C 20.6 °C 1017.5 hPa Calm   1.6 km/h 93% 0 mm WeatherDisplay:10.37 W/m2 CLR
21:30 21.7 °C 20.5 °C 1017.8 hPa Calm   1.6 km/h 93% 0 mm WeatherDisplay:10.37 W/m2 CLR
21:40 21.6 °C 20.4 °C 1018.2 hPa Calm     93% 0 mm WeatherDisplay:10.37 W/m2 CLR
21:50 21.5 °C 20.3 °C 1018.2 hPa Calm     93% 0 mm WeatherDisplay:10.37 W/m2 CLR
22:00 21.4 °C 20.3 °C 1018.2 hPa Calm   1.6 km/h 93% 0 mm WeatherDisplay:10.37 W/m2 CLR
22:10 21.4 °C 20.3 °C 1018.5 hPa Calm   1.6 km/h 93% 0 mm WeatherDisplay:10.37 W/m2 CLR
22:20 21.4 °C 20.2 °C 1018.5 hPa Calm   1.6 km/h 93% 0 mm WeatherDisplay:10.37 W/m2 CLR
22:30 21.3 °C 20.2 °C 1018.5 hPa Calm   1.6 km/h 93% 0 mm WeatherDisplay:10.37 W/m2 CLR
22:40 21.3 °C 20.2 °C 1018.8 hPa Calm   1.6 km/h 93% 0 mm WeatherDisplay:10.37 W/m2 CLR
22:50 21.3 °C 20.2 °C 1018.8 hPa Calm     93% 0 mm WeatherDisplay:10.37 W/m2 CLR
23:00 21.3 °C 20.2 °C 1018.8 hPa Calm     93% 0 mm WeatherDisplay:10.37 W/m2 CLR
23:10 21.3 °C 20.2 °C 1018.8 hPa Calm     93% 0 mm WeatherDisplay:10.37 W/m2 CLR
23:20 21.2 °C 20.1 °C 1018.8 hPa Calm   1.6 km/h 93% 0 mm WeatherDisplay:10.37 W/m2 CLR
23:30 21.2 °C 20 °C 1018.8 hPa Calm   1.6 km/h 93% 0 mm WeatherDisplay:10.37 W/m2 CLR
23:40 21.1 °C 19.9 °C 1018.8 hPa Calm     93% 0 mm WeatherDisplay:10.37 W/m2 CLR
23:50 20.9 °C 19.8 °C 1018.8 hPa Calm     93% 0 mm WeatherDisplay:10.37 W/m2 CLR
Piedmont Bend
Compliments of Weather Underground - 4 mb